Terminal Aerodrome Forecast
Issued by NWS

Home | Current Version | Previous Version | Text Only | Print | Product List | Glossary On
Versions: 1 2 3 4 5 6 7 8 9 10 11 12 13 14 15
000
FTUS44 KEPZ 032332
TAFLRU
TAF
KLRU 032332Z 0400/0424 04010KT P6SM VCSH SCT090 SCT250
     FM040200 09008G16KT P6SM VCTS BKN060CB
     FM040600 11008KT P6SM SCT080 BKN250
     FM041800 13010KT P6SM SCT090 SCT250=

USA.gov is the U.S. government's official web portal to all federal, state and local government web resources and services.